Chebeague Island, Maine
Current Conditions -  °F | °C
As of 4:19 AM on Thursday 27 Nov 2014 (Local Time) from KPWM Reporting Station
Light Snow Light Snow  
Wind Chill: 20°   Ceiling: 2600
Heat Index: 32°   Visibility: 4mi
Dew Point: 28°   Wind: 21mph
Humidity: 85%   Direction: 350°N
Pressure: 29.74"   Gusts: 30mph
Location:  43.74°N, 70.11°W
Report Text: KPWM 270919Z 35018G26KT 4SM -SN BR FEW016 SCT020 OVC026 00/M02 A2974 RMK AO2 PK WND 36026/0919 P0001 T00001022 $
Loading
Personal Weather Stations






























Interactive Weather Map New forecast layout! Learn more

10-Day Weather Forecast

Advertisements
Track Severe Weather on mobile